createdAt,value
2022-08-25T00:01:11.616Z,1022.08
2022-08-25T00:11:17.831Z,1022.09
2022-08-25T00:21:24.268Z,1021.99
2022-08-25T00:31:38.353Z,1021.89
2022-08-25T00:41:41.762Z,1021.88
2022-08-25T00:51:48.420Z,1021.84
2022-08-25T01:01:55.174Z,1021.86
2022-08-25T01:12:01.731Z,1021.99
2022-08-25T01:22:08.012Z,1021.94
2022-08-25T01:32:14.281Z,1021.86
2022-08-25T01:42:20.583Z,1021.86
2022-08-25T01:52:26.815Z,1021.87
2022-08-25T02:02:33.182Z,1021.79
2022-08-25T02:12:40.960Z,1021.77
2022-08-25T02:22:53.110Z,1021.66
2022-08-25T02:32:59.129Z,1021.61
2022-08-25T02:43:05.552Z,1021.49
2022-08-25T02:53:11.920Z,1021.49
2022-08-25T03:03:19.505Z,1021.42
2022-08-25T03:13:25.611Z,1021.37
2022-08-25T03:23:32.090Z,1021.32
2022-08-25T03:33:38.579Z,1021.30
2022-08-25T03:43:44.965Z,1021.19
2022-08-25T03:53:54.590Z,1021.22
2022-08-25T04:04:00.991Z,1021.33
2022-08-25T04:14:07.248Z,1021.36
2022-08-25T04:24:13.854Z,1021.41
2022-08-25T04:34:29.310Z,1021.47
2022-08-25T04:44:31.681Z,1021.45
2022-08-25T04:54:38.906Z,1021.50
2022-08-25T05:04:45.375Z,1021.51
2022-08-25T05:14:51.964Z,1021.53
2022-08-25T05:24:58.463Z,1021.66
2022-08-25T05:35:04.687Z,1021.79
2022-08-25T05:45:17.391Z,1021.68
2022-08-25T05:55:22.392Z,1021.71
2022-08-25T06:05:28.911Z,1021.68
2022-08-25T06:15:35.482Z,1021.67
2022-08-25T06:25:42.168Z,1021.64
2022-08-25T06:35:48.544Z,1021.65
2022-08-25T06:45:54.813Z,1021.71
2022-08-25T06:56:06.508Z,1021.79
2022-08-25T07:06:13.222Z,1021.83
2022-08-25T07:16:19.597Z,1021.72
2022-08-25T07:26:41.372Z,1021.67
2022-08-25T07:36:38.066Z,1021.56
2022-08-25T07:46:44.943Z,1021.58
2022-08-25T07:56:51.109Z,1021.64
2022-08-25T08:06:59.329Z,1021.53
2022-08-25T08:17:06.699Z,1021.43
2022-08-25T08:27:13.756Z,1021.43
2022-08-25T08:37:22.830Z,1021.36
2022-08-25T08:47:29.871Z,1021.28
2022-08-25T08:57:36.252Z,1021.21
2022-08-25T09:07:43.611Z,1021.25
2022-08-25T09:17:55.044Z,1021.25
2022-08-25T09:28:01.369Z,1021.13
2022-08-25T09:38:07.972Z,1021.01
2022-08-25T09:48:14.092Z,1020.96
2022-08-25T09:58:22.317Z,1020.93
2022-08-25T10:08:29.477Z,1020.84
2022-08-25T10:18:35.914Z,1020.71
2022-08-25T10:28:42.268Z,1020.69
2022-08-25T10:38:48.816Z,1020.71
2022-08-25T10:48:55.168Z,1020.47
2022-08-25T10:59:02.073Z,1020.26
2022-08-25T11:09:08.824Z,1020.22
2022-08-25T11:19:15.965Z,1020.09
2022-08-25T11:29:22.997Z,1019.97
2022-08-25T11:39:32.960Z,1019.98
2022-08-25T11:49:42.520Z,1019.91
2022-08-25T11:59:48.834Z,1019.79
2022-08-25T12:09:57.067Z,1019.64
2022-08-25T12:20:04.371Z,1019.51
2022-08-25T12:30:18.545Z,1019.37
2022-08-25T12:40:25.311Z,1019.28
2022-08-25T12:50:31.694Z,1019.13
2022-08-25T13:00:38.016Z,1019.09
2022-08-25T13:10:44.635Z,1019.05
2022-08-25T13:20:50.971Z,1019.00
2022-08-25T13:30:56.893Z,1018.90
2022-08-25T13:42:23.956Z,1018.78
2022-08-25T13:52:33.795Z,1018.67
2022-08-25T14:02:40.653Z,1018.62
2022-08-25T14:12:51.092Z,1018.53
2022-08-25T14:22:58.032Z,1018.53
2022-08-25T14:33:05.529Z,1018.32
2022-08-25T14:43:13.485Z,1018.22
2022-08-25T14:53:19.855Z,1018.14
2022-08-25T15:03:26.784Z,1017.99
2022-08-25T15:13:35.654Z,1017.97
2022-08-25T15:23:44.640Z,1017.92
2022-08-25T15:33:51.441Z,1017.84
2022-08-25T15:43:59.002Z,1017.75
2022-08-25T15:54:05.951Z,1017.68
2022-08-25T16:04:12.306Z,1017.53
2022-08-25T16:14:18.717Z,1017.44
2022-08-25T16:24:25.539Z,1017.33
2022-08-25T16:34:33.273Z,1017.26
2022-08-25T16:44:40.900Z,1017.20
2022-08-25T16:54:47.435Z,1017.20
2022-08-25T17:04:55.158Z,1017.21
2022-08-25T17:15:02.189Z,1017.21
2022-08-25T17:25:13.258Z,1017.26
2022-08-25T17:35:20.152Z,1017.24
2022-08-25T17:45:26.892Z,1017.23
2022-08-25T17:55:33.704Z,1017.22
2022-08-25T18:05:39.924Z,1017.33
2022-08-25T18:15:47.319Z,1017.43
2022-08-25T18:26:00.859Z,1017.46
2022-08-25T18:36:04.894Z,1017.50
2022-08-25T18:46:11.386Z,1017.56
2022-08-25T18:56:18.000Z,1017.60
2022-08-25T19:06:24.375Z,1017.59
2022-08-25T19:16:31.622Z,1017.57
2022-08-25T19:26:41.067Z,1017.59
2022-08-25T19:36:48.369Z,1017.63
2022-08-25T19:46:55.352Z,1017.61
2022-08-25T19:57:02.284Z,1017.58
2022-08-25T20:07:12.332Z,1017.58
2022-08-25T20:18:39.432Z,1017.65
2022-08-25T20:28:46.336Z,1017.60
2022-08-25T20:38:53.286Z,1017.58
2022-08-25T20:49:00.309Z,1017.48
2022-08-25T20:59:10.247Z,1017.47
2022-08-25T21:09:16.502Z,1017.45
2022-08-25T21:19:26.429Z,1017.39
2022-08-25T21:29:33.763Z,1017.41
2022-08-25T21:39:40.952Z,1017.40
2022-08-25T21:49:47.587Z,1017.35
2022-08-25T21:59:55.059Z,1017.27
2022-08-25T22:10:01.947Z,1017.21
2022-08-25T22:20:08.247Z,1017.13
2022-08-25T22:30:15.582Z,1017.05
2022-08-25T22:40:21.928Z,1016.98
2022-08-25T22:50:28.413Z,1016.95
2022-08-25T23:00:34.927Z,1016.88
2022-08-25T23:10:42.186Z,1016.87
2022-08-25T23:20:48.752Z,1016.75
2022-08-25T23:30:59.099Z,1016.74
2022-08-25T23:41:06.046Z,1016.62
2022-08-25T23:51:12.209Z,1016.56
